Azalea, Oregon
Current Conditions -  °F | °C
As of 4:03 AM on Monday 22 Dec 2014 (Local Time) from KSXT Reporting Station
Haze Haze  
Wind Chill:   Ceiling: 400
Heat Index:   Visibility: 1mi
Dew Point:   Wind: 6mph
Humidity: 100%   Direction: NA
Pressure: 30.28"   Gusts: NA
Location:  42.8°N, 123.26°W
Report Text: KSXT 221203Z AUTO VRB05KT 1SM BR VV004 08/08 A3028 RMK AO2 RAE1157 P0000 T00830083
Loading
Personal Weather Stations






























Interactive Weather Map New forecast layout! Learn more

10-Day Weather Forecast

Advertisements
Track Severe Weather on mobile